Time;durP1;ratioP1;P1;durP2;ratioP2;P2;SDS_P1;SDS_P2;PMS_P1;PMS_P2;Temp;Humidity;BMP_temperature;BMP_pressure;BME280_temperature;BME280_humidity;BME280_pressure;Samples;Min_cycle;Max_cycle;Signal;HPM_P1;HPM_P2
2021/03/29 00:02:11;;;;;;;11.52;4.05;;;10.90;65.30;;;;;;5073419;28;20551;-78
2021/03/29 00:04:37;;;;;;;10.82;3.85;;;10.90;65.40;;;;;;5071254;28;20037;-78
2021/03/29 00:07:11;;;;;;;10.30;3.05;;;10.90;65.40;;;;;;5054956;28;20028;-78
2021/03/29 00:09:42;;;;;;;8.93;3.10;;;10.80;65.40;;;;;;5054181;28;20091;-78
2021/03/29 00:12:19;;;;;;;9.65;3.53;;;10.80;65.50;;;;;;5034493;28;20504;-78
2021/03/29 00:14:46;;;;;;;11.18;3.22;;;10.80;65.50;;;;;;5044473;28;20030;-78
2021/03/29 00:17:15;;;;;;;10.45;2.80;;;10.80;65.50;;;;;;5054475;28;20021;-78
2021/03/29 00:19:42;;;;;;;11.50;3.20;;;10.70;65.50;;;;;;5058010;28;20158;-78
2021/03/29 00:22:11;;;;;;;10.80;3.05;;;10.70;65.50;;;;;;5072781;28;20025;-78
2021/03/29 00:24:40;;;;;;;7.63;2.83;;;10.70;65.40;;;;;;5071811;28;20028;-78
2021/03/29 00:27:09;;;;;;;;;;;10.70;65.50;;;;;;5054823;28;20033;-78
2021/03/29 00:29:35;;;;;;;5.55;2.40;;;10.70;65.50;;;;;;5054381;28;20422;-77
2021/03/29 00:32:03;;;;;;;12.55;2.80;;;10.60;65.60;;;;;;5054133;28;20452;-77
2021/03/29 00:34:29;;;;;;;10.43;3.03;;;10.60;65.70;;;;;;5054162;28;20025;-77
2021/03/29 00:36:56;;;;;;;9.82;3.25;;;10.60;65.70;;;;;;5065441;28;20045;-78
2021/03/29 00:39:23;;;;;;;8.98;3.00;;;10.60;65.70;;;;;;5072444;28;20025;-78
2021/03/29 00:41:50;;;;;;;11.05;3.10;;;10.60;65.70;;;;;;5073988;28;20028;-78
2021/03/29 00:44:16;;;;;;;12.65;2.97;;;10.60;65.70;;;;;;5072688;28;20389;-78
2021/03/29 00:46:52;;;;;;;10.55;3.13;;;10.50;65.60;;;;;;5073991;28;20082;-78
2021/03/29 00:49:21;;;;;;;13.38;2.70;;;10.50;65.60;;;;;;5073708;28;20029;-78
2021/03/29 00:51:47;;;;;;;7.63;2.50;;;10.50;65.60;;;;;;5073940;28;20028;-77
2021/03/29 00:54:13;;;;;;;11.35;2.70;;;10.50;65.70;;;;;;5073814;28;20561;-78
2021/03/29 00:56:43;;;;;;;12.77;3.17;;;10.50;65.70;;;;;;5073846;28;20056;-78
2021/03/29 00:59:09;;;;;;;9.98;2.88;;;10.50;65.70;;;;;;5073606;28;20020;-78
2021/03/29 01:01:51;;;;;;;16.02;2.97;;;10.50;65.80;;;;;;5072437;28;20028;-78
2021/03/29 01:04:20;;;;;;;9.30;3.00;;;10.50;65.90;;;;;;5073604;28;20024;-78
2021/03/29 01:06:49;;;;;;;10.52;2.80;;;10.40;65.90;;;;;;5073525;28;20020;-78
2021/03/29 01:09:24;;;;;;;7.18;2.40;;;10.50;65.90;;;;;;5073320;28;20056;-77
2021/03/29 01:11:57;;;;;;;8.95;2.72;;;10.40;65.90;;;;;;5053472;28;20021;-77
2021/03/29 01:14:36;;;;;;;10.02;2.38;;;10.40;65.90;;;;;;5065827;28;20143;-77
2021/03/29 01:17:13;;;;;;;11.20;2.50;;;10.40;66.00;;;;;;5072337;28;20020;-77
2021/03/29 01:19:56;;;;;;;12.43;2.63;;;10.40;66.10;;;;;;5073247;28;20040;-77
2021/03/29 01:22:34;;;;;;;8.30;3.00;;;10.40;66.20;;;;;;5072247;28;20031;-77
2021/03/29 01:25:16;;;;;;;8.15;2.47;;;10.40;66.20;;;;;;5072383;28;20116;-77
2021/03/29 01:27:50;;;;;;;7.15;2.38;;;10.40;66.10;;;;;;5073360;28;20025;-77
2021/03/29 01:30:23;;;;;;;10.40;2.90;;;10.40;66.00;;;;;;5072990;28;20029;-78
2021/03/29 01:32:51;;;;;;;11.07;2.75;;;10.40;65.90;;;;;;5072879;28;20107;-78
2021/03/29 01:35:30;;;;;;;7.82;2.40;;;10.40;66.00;;;;;;5073269;28;20021;-78
2021/03/29 01:37:57;;;;;;;10.95;2.80;;;10.30;66.70;;;;;;5073168;28;20107;-78
2021/03/29 01:40:23;;;;;;;12.15;2.58;;;10.30;66.00;;;;;;5071757;28;20033;-78
2021/03/29 01:42:50;;;;;;;11.13;3.28;;;10.30;66.20;;;;;;5072027;28;20020;-78
2021/03/29 01:45:18;;;;;;;11.30;3.20;;;10.30;66.20;;;;;;5073001;28;20017;-78
2021/03/29 01:47:46;;;;;;;12.82;2.83;;;10.20;66.30;;;;;;5073150;28;20025;-78
2021/03/29 01:50:17;;;;;;;7.35;2.33;;;10.20;66.30;;;;;;5072476;28;20059;-78
2021/03/29 01:52:46;;;;;;;7.82;2.30;;;10.20;66.50;;;;;;5072240;28;20489;-78
2021/03/29 01:55:19;;;;;;;8.00;2.55;;;10.20;66.50;;;;;;5071303;28;20073;-78
2021/03/29 01:57:45;;;;;;;8.98;2.72;;;10.20;66.70;;;;;;5072532;28;20488;-78
2021/03/29 02:00:21;;;;;;;9.25;2.50;;;10.20;66.60;;;;;;5072573;28;20043;-78
2021/03/29 02:02:47;;;;;;;7.35;2.13;;;10.20;66.70;;;;;;5072957;28;20056;-78
2021/03/29 02:05:14;;;;;;;6.93;2.25;;;10.10;66.70;;;;;;5073073;28;20029;-78
2021/03/29 02:07:42;;;;;;;10.65;2.72;;;10.20;66.80;;;;;;5072686;28;20100;-78
2021/03/29 02:10:23;;;;;;;6.50;2.42;;;10.10;66.80;;;;;;5072995;28;20031;-77
2021/03/29 02:12:52;;;;;;;11.52;2.95;;;10.10;66.90;;;;;;5072751;28;20108;-77
2021/03/29 02:15:21;;;;;;;;;;;10.10;66.90;;;;;;5072121;28;20028;-77
2021/03/29 02:17:50;;;;;;;8.60;2.27;;;10.00;66.80;;;;;;5071542;28;19908;-77
2021/03/29 02:20:17;;;;;;;8.75;2.28;;;10.00;67.00;;;;;;5071358;28;20020;-77
2021/03/29 02:22:46;;;;;;;8.13;2.28;;;10.00;67.10;;;;;;5072956;28;20032;-77
2021/03/29 02:25:13;;;;;;;10.60;2.42;;;10.00;67.00;;;;;;5071448;28;20035;-77
2021/03/29 02:27:44;;;;;;;7.22;2.22;;;10.00;67.00;;;;;;5072760;28;20040;-77
2021/03/29 02:30:13;;;;;;;6.55;2.40;;;10.00;67.20;;;;;;5072644;28;20111;-78
2021/03/29 02:32:43;;;;;;;5.97;1.90;;;9.90;67.40;;;;;;5072464;28;20025;-78
2021/03/29 02:35:10;;;;;;;12.02;2.40;;;9.90;67.50;;;;;;5071638;28;20040;-78
2021/03/29 02:37:38;;;;;;;9.30;2.67;;;9.80;67.50;;;;;;5072490;28;20378;-78
2021/03/29 02:40:08;;;;;;;5.95;2.35;;;9.80;67.50;;;;;;5072758;28;20047;-78
2021/03/29 02:42:37;;;;;;;5.90;1.98;;;9.80;67.70;;;;;;5071855;28;20024;-78
2021/03/29 02:45:13;;;;;;;6.35;2.05;;;9.80;67.80;;;;;;5075938;28;20079;-78
2021/03/29 02:47:46;;;;;;;8.52;2.42;;;9.80;68.00;;;;;;5072744;28;20108;-78
2021/03/29 02:50:31;;;;;;;7.75;2.30;;;9.80;68.10;;;;;;5074647;28;20039;-78
2021/03/29 02:53:03;;;;;;;6.85;2.10;;;9.70;68.10;;;;;;5071493;28;20394;-78
2021/03/29 02:55:33;;;;;;;6.18;2.05;;;9.70;68.20;;;;;;5056168;28;20075;-77
2021/03/29 02:58:06;;;;;;;8.25;2.08;;;9.60;68.20;;;;;;5057828;28;20394;-77
2021/03/29 03:00:46;;;;;;;7.35;2.08;;;9.60;68.30;;;;;;5054562;28;20029;-77
2021/03/29 03:03:13;;;;;;;8.90;2.63;;;9.60;68.30;;;;;;5055870;28;20450;-78
2021/03/29 03:05:43;;;;;;;8.82;2.90;;;9.60;68.40;;;;;;5055803;28;20053;-78
2021/03/29 03:08:25;;;;;;;9.93;3.38;;;9.60;68.50;;;;;;5048062;28;20027;-78
2021/03/29 03:10:57;;;;;;;11.85;2.90;;;9.60;68.70;;;;;;5075383;28;20385;-78
2021/03/29 03:13:26;;;;;;;9.23;2.40;;;9.60;68.80;;;;;;5070580;28;20029;-78
2021/03/29 03:15:52;;;;;;;8.13;2.08;;;9.60;68.80;;;;;;5075614;28;20103;-77
2021/03/29 03:18:20;;;;;;;11.27;2.42;;;9.50;68.80;;;;;;5054421;28;20108;-78
2021/03/29 03:20:49;;;;;;;7.10;2.05;;;9.50;68.80;;;;;;5054355;28;20060;-77
2021/03/29 03:23:17;;;;;;;7.50;2.17;;;9.60;68.90;;;;;;5056670;28;20067;-77
2021/03/29 03:25:47;;;;;;;8.07;2.00;;;9.50;68.80;;;;;;5074020;28;20263;-77
2021/03/29 03:28:18;;;;;;;7.38;1.88;;;9.50;68.90;;;;;;5056717;28;20040;-77
2021/03/29 03:30:49;;;;;;;7.90;2.22;;;9.50;68.90;;;;;;5054619;28;20037;-77
2021/03/29 03:33:19;;;;;;;3.85;1.80;;;9.50;68.90;;;;;;5055333;28;20021;-77
2021/03/29 03:35:46;;;;;;;6.75;2.00;;;9.50;68.90;;;;;;5061351;28;20031;-77
2021/03/29 03:38:25;;;;;;;8.85;1.98;;;9.50;69.10;;;;;;5077869;28;20024;-77
2021/03/29 03:41:04;;;;;;;8.35;2.13;;;9.50;69.10;;;;;;5076875;28;20389;-77
2021/03/29 03:44:02;;;;;;;6.32;2.15;;;9.50;69.20;;;;;;5095472;28;20024;-78
2021/03/29 03:46:56;;;;;;;7.72;1.85;;;9.50;69.30;;;;;;5077366;28;20031;-78
2021/03/29 03:49:23;;;;;;;10.25;2.20;;;9.50;69.30;;;;;;5075596;28;20051;-77
2021/03/29 03:51:57;;;;;;;8.80;1.92;;;9.40;69.30;;;;;;5095069;28;20016;-77
2021/03/29 03:54:24;;;;;;;7.03;2.13;;;9.40;69.40;;;;;;5076067;28;20060;-77
2021/03/29 03:56:50;;;;;;;6.43;2.08;;;9.40;69.40;;;;;;5095077;28;20091;-77
2021/03/29 03:59:16;;;;;;;9.48;2.50;;;9.40;69.50;;;;;;5095110;28;20102;-77
2021/03/29 04:02:01;;;;;;;6.60;2.10;;;9.40;69.60;;;;;;5076392;28;20443;-77
2021/03/29 04:04:36;;;;;;;7.20;2.22;;;9.40;69.80;;;;;;5077040;28;20052;-77
2021/03/29 04:07:02;;;;;;;10.35;2.20;;;9.40;69.70;;;;;;5094880;28;20028;-77
2021/03/29 04:12:11;;;;;;;9.95;1.70;;;9.40;69.80;;;;;;5094582;28;20103;-77
2021/03/29 04:14:38;;;;;;;8.15;2.17;;;9.40;69.90;;;;;;5094834;28;20061;-78
2021/03/29 04:17:06;;;;;;;9.35;2.03;;;9.30;69.90;;;;;;5076574;28;20028;-78
2021/03/29 04:19:34;;;;;;;10.05;2.05;;;9.30;70.00;;;;;;5077372;28;20032;-78
2021/03/29 04:22:04;;;;;;;6.85;2.10;;;9.30;70.10;;;;;;5094636;28;20028;-77
2021/03/29 04:24:33;;;;;;;5.15;1.95;;;9.30;70.20;;;;;;5094383;28;20031;-77
2021/03/29 04:26:59;;;;;;;9.13;2.30;;;9.30;70.20;;;;;;5074336;28;20420;-77
2021/03/29 04:29:28;;;;;;;7.15;2.08;;;9.30;70.20;;;;;;5090658;28;20068;-77
2021/03/29 04:31:54;;;;;;;9.95;2.70;;;9.30;70.30;;;;;;5093388;28;20036;-77
2021/03/29 04:34:20;;;;;;;14.85;2.60;;;9.20;70.30;;;;;;5075465;28;20119;-77
2021/03/29 04:36:55;;;;;;;9.27;2.50;;;9.20;71.10;;;;;;5094245;28;20074;-77
2021/03/29 04:39:21;;;;;;;9.75;2.58;;;9.20;70.50;;;;;;5094308;28;20048;-77
2021/03/29 04:41:47;;;;;;;6.97;2.40;;;9.20;70.60;;;;;;5094318;28;20394;-77
2021/03/29 04:44:15;;;;;;;8.30;2.25;;;9.20;70.70;;;;;;5094385;28;20384;-77
2021/03/29 04:46:41;;;;;;;7.25;2.03;;;9.10;70.80;;;;;;5094202;28;20032;-77
2021/03/29 04:49:10;;;;;;;8.57;2.10;;;9.10;70.90;;;;;;5093885;28;20044;-77
2021/03/29 04:51:36;;;;;;;7.57;2.08;;;9.10;70.90;;;;;;5094389;28;20085;-78
2021/03/29 04:54:04;;;;;;;7.97;2.08;;;9.10;71.00;;;;;;5059512;28;20119;-78
2021/03/29 04:56:33;;;;;;;6.75;1.83;;;9.10;71.00;;;;;;5094445;28;20032;-78
2021/03/29 04:58:59;;;;;;;5.78;2.08;;;9.10;71.10;;;;;;5094141;28;20035;-78
2021/03/29 05:01:28;;;;;;;8.68;2.20;;;9.10;71.30;;;;;;5076192;28;20367;-78
2021/03/29 05:03:54;;;;;;;5.32;2.17;;;9.10;71.40;;;;;;5076019;28;20078;-78
2021/03/29 05:06:20;;;;;;;7.45;2.70;;;9.10;71.30;;;;;;5075343;28;20420;-78
2021/03/29 05:08:46;;;;;;;9.30;2.40;;;9.10;71.40;;;;;;5075599;28;20020;-78
2021/03/29 05:11:12;;;;;;;5.47;2.00;;;9.10;72.00;;;;;;5075872;28;20032;-78
2021/03/29 05:14:08;;;;;;;5.32;2.08;;;9.10;71.30;;;;;;5076549;28;20077;-76
2021/03/29 05:16:34;;;;;;;6.63;2.20;;;9.10;71.50;;;;;;5075672;28;20032;-79
2021/03/29 05:19:02;;;;;;;7.72;2.20;;;9.00;71.50;;;;;;5093777;28;20026;-78
2021/03/29 05:21:28;;;;;;;8.03;1.93;;;9.00;71.70;;;;;;5093893;28;20099;-79
2021/03/29 05:23:57;;;;;;;5.55;2.22;;;9.00;71.70;;;;;;5093936;28;20047;-79
2021/03/29 05:26:23;;;;;;;6.90;2.03;;;9.00;71.80;;;;;;5094268;28;20035;-79
2021/03/29 05:28:51;;;;;;;8.60;2.30;;;9.00;71.80;;;;;;5093696;28;20028;-79
2021/03/29 05:31:20;;;;;;;10.40;2.20;;;9.00;71.90;;;;;;5089783;28;20039;-79
2021/03/29 05:33:46;;;;;;;5.53;2.00;;;9.00;71.90;;;;;;5094185;28;20024;-79
2021/03/29 05:36:15;;;;;;;9.18;1.70;;;9.00;71.90;;;;;;5093475;28;20031;-79
2021/03/29 05:38:48;;;;;;;8.95;2.22;;;9.00;71.90;;;;;;5093549;28;20031;-79
2021/03/29 05:41:21;;;;;;;7.38;2.25;;;9.00;72.00;;;;;;5093583;28;20016;-79
2021/03/29 05:43:50;;;;;;;11.13;2.10;;;9.00;72.00;;;;;;5093512;28;20021;-79
2021/03/29 05:46:42;;;;;;;;;;;9.00;72.20;;;;;;5094061;28;20024;-79
2021/03/29 05:49:17;;;;;;;6.75;1.92;;;9.00;72.00;;;;;;5072481;28;20268;-78
2021/03/29 05:51:57;;;;;;;5.93;2.35;;;9.00;72.80;;;;;;5093338;28;20051;-78
2021/03/29 05:54:23;;;;;;;8.90;2.10;;;9.00;72.20;;;;;;5093254;28;20020;-78
2021/03/29 05:56:59;;;;;;;6.47;2.03;;;9.00;72.20;;;;;;5074573;28;20073;-78
2021/03/29 05:59:40;;;;;;;6.18;1.98;;;9.00;72.40;;;;;;5093091;28;20542;-78
2021/03/29 06:02:07;;;;;;;9.75;2.42;;;9.00;72.30;;;;;;5093190;28;20012;-78
2021/03/29 06:04:51;;;;;;;11.95;2.42;;;9.10;72.30;;;;;;5074974;28;20397;-79
2021/03/29 06:07:28;;;;;;;5.88;1.90;;;9.20;72.30;;;;;;5093389;28;20021;-79
2021/03/29 06:10:08;;;;;;;9.45;2.00;;;9.20;72.20;;;;;;5074629;28;20477;-79
2021/03/29 06:12:54;;;;;;;7.05;1.90;;;9.30;72.20;;;;;;5092976;28;20052;-79
2021/03/29 06:15:27;;;;;;;7.80;2.20;;;9.30;72.00;;;;;;5075085;28;20032;-79
2021/03/29 06:18:13;;;;;;;5.63;1.90;;;9.40;71.90;;;;;;5076411;28;20023;-79
2021/03/29 06:20:59;;;;;;;7.25;1.90;;;9.50;71.80;;;;;;5097284;28;20025;-78
2021/03/29 06:23:25;;;;;;;6.75;2.08;;;9.60;71.80;;;;;;5097132;28;20473;-78
2021/03/29 06:26:17;;;;;;;9.48;1.48;;;9.60;71.50;;;;;;5097105;28;20032;-78
2021/03/29 06:28:43;;;;;;;7.43;2.20;;;9.70;71.50;;;;;;5096899;28;20130;-78
2021/03/29 06:31:35;;;;;;;9.27;2.13;;;9.70;71.30;;;;;;5096483;28;20025;-78
2021/03/29 06:34:02;;;;;;;9.27;2.35;;;9.80;71.40;;;;;;5096760;28;20024;-78
2021/03/29 06:36:34;;;;;;;9.35;2.08;;;9.90;71.10;;;;;;5096768;28;20105;-79
2021/03/29 06:39:19;;;;;;;9.90;2.80;;;10.00;70.90;;;;;;5096838;28;20031;-78
2021/03/29 06:42:07;;;;;;;10.00;2.10;;;10.10;70.80;;;;;;5096580;28;20036;-78
2021/03/29 06:44:40;;;;;;;7.00;1.92;;;10.10;70.70;;;;;;5078497;28;20020;-78
2021/03/29 06:47:25;;;;;;;7.60;2.17;;;10.20;70.60;;;;;;5096594;28;20022;-78
2021/03/29 06:49:51;;;;;;;8.55;2.30;;;10.30;70.30;;;;;;5096119;28;20528;-78
2021/03/29 06:52:31;;;;;;;5.90;2.00;;;10.40;70.10;;;;;;5096340;28;20044;-78
2021/03/29 06:55:18;;;;;;;10.23;2.15;;;10.50;69.90;;;;;;5096423;28;20023;-78
2021/03/29 06:58:03;;;;;;;8.27;2.05;;;10.60;69.60;;;;;;5095976;28;20019;-78
2021/03/29 07:00:36;;;;;;;9.48;2.65;;;10.70;69.50;;;;;;5095514;28;20059;-78
2021/03/29 07:03:04;;;;;;;6.40;2.13;;;10.70;69.40;;;;;;5095605;28;20397;-78
2021/03/29 07:05:31;;;;;;;6.80;1.88;;;10.80;69.20;;;;;;5077444;28;20573;-78
2021/03/29 07:08:02;;;;;;;6.70;2.00;;;10.90;69.10;;;;;;5095695;28;20028;-79
2021/03/29 07:10:29;;;;;;;10.50;1.90;;;11.00;68.90;;;;;;5095637;28;20655;-79
2021/03/29 07:12:58;;;;;;;9.30;1.90;;;11.10;69.30;;;;;;5077423;28;20370;-79
2021/03/29 07:15:26;;;;;;;;;;;11.30;68.50;;;;;;5096394;28;20020;-79
2021/03/29 07:17:52;;;;;;;6.78;1.70;;;11.40;68.20;;;;;;5095552;28;19934;-79
2021/03/29 07:20:26;;;;;;;5.38;1.88;;;11.40;67.60;;;;;;5077503;28;20113;-79
2021/03/29 07:22:57;;;;;;;8.05;2.22;;;11.60;67.30;;;;;;5095881;28;20024;-79
2021/03/29 07:25:31;;;;;;;8.70;2.03;;;11.70;67.00;;;;;;5095146;28;20032;-79
2021/03/29 07:27:59;;;;;;;6.88;1.92;;;11.90;66.70;;;;;;5096165;28;20522;-79
2021/03/29 07:30:51;;;;;;;8.70;2.30;;;12.00;66.60;;;;;;5094798;28;20024;-79
2021/03/29 07:33:21;;;;;;;9.13;2.33;;;12.10;66.20;;;;;;5088650;28;20026;-78
2021/03/29 07:35:54;;;;;;;7.93;1.80;;;12.20;66.00;;;;;;5088934;28;21681;-79
2021/03/29 07:38:24;;;;;;;5.45;1.90;;;12.30;65.80;;;;;;5055361;28;20120;-79
2021/03/29 07:40:51;;;;;;;6.75;1.85;;;12.40;65.60;;;;;;5055706;28;20021;-79
2021/03/29 07:43:22;;;;;;;7.82;2.17;;;12.60;65.20;;;;;;5055643;28;20509;-79
2021/03/29 07:45:52;;;;;;;8.63;2.00;;;12.70;64.80;;;;;;5055518;28;20036;-79
2021/03/29 07:49:01;;;;;;;6.88;2.33;;;12.80;64.60;;;;;;5055366;28;20047;-78
2021/03/29 07:51:27;;;;;;;7.55;2.20;;;12.90;64.20;;;;;;4939541;29;20578;-79
2021/03/29 07:53:59;;;;;;;9.05;2.20;;;13.00;64.10;;;;;;4939293;29;20147;-79
2021/03/29 07:56:41;;;;;;;7.03;1.85;;;13.20;63.90;;;;;;4998222;28;20064;-79
2021/03/29 07:59:07;;;;;;;9.10;2.13;;;13.40;63.70;;;;;;5035103;28;20029;-79
2021/03/29 08:02:12;;;;;;;8.70;2.45;;;13.50;63.00;;;;;;5035226;28;20025;-79
2021/03/29 08:05:06;;;;;;;12.25;2.50;;;13.60;62.80;;;;;;5033876;28;20029;-79
2021/03/29 08:07:53;;;;;;;5.30;2.53;;;13.80;62.40;;;;;;5035031;28;20068;-79
2021/03/29 08:11:10;;;;;;;7.97;2.78;;;13.90;62.30;;;;;;5034958;28;20030;-79
2021/03/29 08:14:36;;;;;;;11.10;2.95;;;14.10;61.90;;;;;;5034762;28;20425;-79
2021/03/29 08:17:52;;;;;;;;;;;;;;;;;;;;;
2021/03/29 08:20:20;;;;;;;8.45;2.58;;;14.50;60.80;;;;;;5036415;28;20032;-79
2021/03/29 08:23:27;;;;;;;11.65;3.10;;;14.60;60.30;;;;;;5053190;28;20115;-78
2021/03/29 08:26:14;;;;;;;7.82;2.58;;;14.70;59.70;;;;;;5054298;28;20025;-78
2021/03/29 08:29:16;;;;;;;7.20;2.00;;;14.90;58.50;;;;;;5053773;28;20017;-78
2021/03/29 08:32:14;;;;;;;6.90;1.92;;;15.00;58.50;;;;;;5052535;28;20478;-78
2021/03/29 08:35:04;;;;;;;9.30;2.53;;;15.20;58.30;;;;;;5054354;28;20071;-78
2021/03/29 08:37:54;;;;;;;5.78;1.92;;;15.30;57.70;;;;;;5068950;28;20039;-78
2021/03/29 08:40:37;;;;;;;9.15;2.55;;;15.50;56.90;;;;;;5094225;28;20020;-78
2021/03/29 08:43:09;;;;;;;7.55;2.67;;;15.60;56.60;;;;;;5094560;28;20074;-78
2021/03/29 08:45:42;;;;;;;14.00;3.67;;;15.70;56.20;;;;;;5076544;28;20115;-78
2021/03/29 08:48:13;;;;;;;9.35;3.10;;;15.80;55.40;;;;;;5093755;28;20019;-78
2021/03/29 08:50:53;;;;;;;4.93;2.33;;;15.90;55.10;;;;;;5076226;28;20063;-78
2021/03/29 08:53:21;;;;;;;7.80;2.50;;;16.10;54.80;;;;;;5057683;28;20085;-78
2021/03/29 08:55:51;;;;;;;6.93;2.72;;;16.30;54.20;;;;;;5094005;28;20480;-78
2021/03/29 08:58:17;;;;;;;7.05;2.83;;;16.30;53.70;;;;;;5093911;28;20389;-78
2021/03/29 09:00:46;;;;;;;6.18;2.20;;;16.50;53.10;;;;;;5094037;28;20035;-78
2021/03/29 09:03:27;;;;;;;6.00;2.60;;;16.50;52.80;;;;;;5093705;28;20060;-78
2021/03/29 09:05:53;;;;;;;4.65;1.90;;;16.60;52.30;;;;;;5093945;28;20578;-78
2021/03/29 09:08:19;;;;;;;6.68;2.20;;;16.70;51.50;;;;;;5075797;28;20118;-78
2021/03/29 09:10:48;;;;;;;8.07;2.78;;;16.70;51.40;;;;;;5093965;28;20362;-78
2021/03/29 09:16:24;;;;;;;8.18;2.53;;;16.90;50.60;;;;;;5032124;28;19912;-78
2021/03/29 09:18:50;;;;;;;7.70;2.38;;;17.00;50.60;;;;;;5051370;28;20533;-78
2021/03/29 09:21:26;;;;;;;6.13;1.92;;;17.20;49.70;;;;;;5051342;28;20587;-78
2021/03/29 09:23:52;;;;;;;6.45;2.10;;;17.30;49.70;;;;;;5050797;28;20060;-78
2021/03/29 09:26:25;;;;;;;9.18;2.85;;;17.40;48.80;;;;;;5051192;28;20025;-79
2021/03/29 09:28:54;;;;;;;9.85;2.60;;;17.50;47.80;;;;;;5051084;28;20037;-79
2021/03/29 09:31:24;;;;;;;;;;;17.60;48.20;;;;;;5051546;28;20548;-79
2021/03/29 09:33:52;;;;;;;18.00;2.35;;;17.70;47.50;;;;;;5050903;28;19911;-79
2021/03/29 09:36:19;;;;;;;6.25;1.85;;;17.80;48.00;;;;;;5034549;28;20489;-79
2021/03/29 09:39:02;;;;;;;6.40;1.60;;;17.90;46.90;;;;;;5051049;28;20130;-79
2021/03/29 09:41:31;;;;;;;6.38;1.70;;;18.10;46.80;;;;;;5034203;28;20049;-79
2021/03/29 09:44:10;;;;;;;6.43;2.20;;;18.20;45.60;;;;;;5068000;28;20032;-79
2021/03/29 09:46:36;;;;;;;10.05;2.00;;;18.30;44.60;;;;;;5093464;28;20020;-79
2021/03/29 09:49:14;;;;;;;7.60;2.05;;;18.40;44.00;;;;;;5075055;28;20032;-78
2021/03/29 09:51:46;;;;;;;7.00;2.40;;;18.50;44.20;;;;;;5088638;28;20025;-79
2021/03/29 09:54:35;;;;;;;9.35;2.13;;;18.60;43.60;;;;;;5077015;28;20404;-79
2021/03/29 09:57:21;;;;;;;6.38;1.80;;;18.70;40.60;;;;;;5092678;28;20027;-79
2021/03/29 09:59:52;;;;;;;5.82;1.67;;;18.80;41.70;;;;;;5093264;28;20020;-79
2021/03/29 10:02:28;;;;;;;6.82;1.67;;;18.90;40.30;;;;;;5074635;28;20481;-79
2021/03/29 10:05:03;;;;;;;4.97;1.40;;;19.00;40.10;;;;;;5093301;28;20097;-79
2021/03/29 10:07:56;;;;;;;5.30;1.52;;;19.10;40.30;;;;;;5093354;28;20384;-78
2021/03/29 10:10:29;;;;;;;10.40;1.60;;;19.10;39.00;;;;;;5074652;28;20050;-79
2021/03/29 10:13:13;;;;;;;6.05;1.98;;;19.30;39.60;;;;;;5092947;28;20091;-79
2021/03/29 10:15:41;;;;;;;5.00;1.80;;;19.40;38.50;;;;;;5073954;28;20069;-79
2021/03/29 10:18:13;;;;;;;5.53;1.95;;;19.40;39.00;;;;;;5092215;28;20574;-78
2021/03/29 10:20:45;;;;;;;5.18;1.67;;;19.50;38.70;;;;;;5092883;28;20035;-78
2021/03/29 10:23:31;;;;;;;5.82;1.90;;;19.60;38.80;;;;;;5074980;28;20036;-79
2021/03/29 10:26:28;;;;;;;4.88;1.67;;;19.70;37.60;;;;;;5092970;28;20020;-79
2021/03/29 10:29:05;;;;;;;4.30;1.65;;;19.80;38.00;;;;;;5059597;28;20036;-79
2021/03/29 10:31:33;;;;;;;5.05;1.73;;;19.80;38.00;;;;;;5093068;28;20074;-79
2021/03/29 10:34:00;;;;;;;4.35;1.95;;;19.90;36.70;;;;;;5092822;28;20028;-79
2021/03/29 10:36:28;;;;;;;6.03;1.80;;;19.90;36.80;;;;;;5093121;28;20541;-79
2021/03/29 10:38:56;;;;;;;8.00;1.73;;;20.00;37.30;;;;;;5074234;28;20130;-78
2021/03/29 10:41:23;;;;;;;3.33;1.60;;;20.20;36.90;;;;;;5065589;28;20169;-78
2021/03/29 10:43:50;;;;;;;5.82;1.55;;;20.30;36.70;;;;;;5064422;28;20518;-82
2021/03/29 10:46:16;;;;;;;5.38;1.50;;;20.40;36.30;;;;;;5051965;28;20025;-79
2021/03/29 10:48:45;;;;;;;7.47;1.88;;;20.50;35.90;;;;;;5052674;28;20028;-78
2021/03/29 10:51:13;;;;;;;7.53;1.77;;;20.50;35.70;;;;;;5052290;28;20132;-78
2021/03/29 10:53:39;;;;;;;6.88;1.80;;;20.60;34.90;;;;;;5059080;28;20393;-78
2021/03/29 10:56:05;;;;;;;7.07;1.52;;;20.60;35.10;;;;;;5051564;28;20032;-79
2021/03/29 10:58:37;;;;;;;3.95;1.58;;;20.70;35.50;;;;;;5069088;28;20059;-78
2021/03/29 11:01:04;;;;;;;4.53;1.20;;;20.70;35.20;;;;;;5066015;28;20017;-77
2021/03/29 11:03:32;;;;;;;5.63;1.92;;;20.80;35.80;;;;;;5063983;28;20051;-77
2021/03/29 11:05:58;;;;;;;5.38;1.70;;;21.00;35.40;;;;;;5053573;28;20033;-77
2021/03/29 11:08:24;;;;;;;3.53;1.65;;;21.00;33.70;;;;;;5056142;28;20366;-77
2021/03/29 11:10:57;;;;;;;6.65;1.73;;;21.10;33.90;;;;;;5054759;28;20087;-77
2021/03/29 11:13:26;;;;;;;7.63;1.60;;;21.20;33.60;;;;;;5054419;28;20474;-77
2021/03/29 11:15:53;;;;;;;;;;;21.30;33.20;;;;;;5059223;28;20024;-77
2021/03/29 11:18:21;;;;;;;5.53;1.70;;;21.30;33.00;;;;;;5073228;28;20350;-77
2021/03/29 11:20:49;;;;;;;4.18;1.63;;;21.40;34.30;;;;;;5076089;28;20033;-77
2021/03/29 11:23:18;;;;;;;6.93;1.75;;;21.50;33.60;;;;;;5074659;28;20102;-77
2021/03/29 11:25:46;;;;;;;;;;;21.50;33.40;;;;;;5074966;28;20444;-78
2021/03/29 11:28:14;;;;;;;5.43;1.70;;;21.50;33.60;;;;;;5034450;28;19916;-78
2021/03/29 11:30:52;;;;;;;10.30;5.15;;;21.50;33.80;;;;;;5034550;28;20037;-78
2021/03/29 11:33:22;;;;;;;8.30;4.28;;;21.60;32.90;;;;;;5048462;28;20028;-78
2021/03/29 11:35:51;;;;;;;6.25;2.50;;;21.70;33.30;;;;;;5055369;28;20028;-78
2021/03/29 11:38:20;;;;;;;10.15;2.60;;;21.80;33.20;;;;;;5069692;28;20083;-78
2021/03/29 11:40:46;;;;;;;9.75;3.55;;;21.90;32.70;;;;;;5094948;28;20052;-78
2021/03/29 11:43:14;;;;;;;5.00;2.80;;;22.00;32.50;;;;;;5095579;28;20036;-78
2021/03/29 11:45:40;;;;;;;6.90;2.15;;;22.10;33.00;;;;;;5095762;28;20081;-78
2021/03/29 11:48:06;;;;;;;5.18;2.08;;;22.20;32.10;;;;;;5076791;28;20119;-78
2021/03/29 11:50:32;;;;;;;5.38;2.08;;;22.30;32.00;;;;;;5095388;28;20038;-78
2021/03/29 11:53:01;;;;;;;4.63;2.10;;;22.40;32.10;;;;;;5095367;28;20024;-78
2021/03/29 11:55:27;;;;;;;5.85;1.95;;;22.50;31.70;;;;;;5095331;28;20108;-78
2021/03/29 11:57:56;;;;;;;6.35;2.03;;;22.50;31.30;;;;;;5095241;28;20101;-78
2021/03/29 12:00:36;;;;;;;4.68;2.00;;;22.60;31.50;;;;;;5094542;28;20055;-78
2021/03/29 12:05:33;;;;;;;3.25;1.60;;;22.70;30.90;;;;;;5094473;28;20062;-78
2021/03/29 12:13:36;;;;;;;3.28;1.50;;;22.90;30.50;;;;;;5095099;28;20115;-78
2021/03/29 12:16:04;;;;;;;5.75;1.70;;;22.90;30.90;;;;;;5094595;28;20089;-78
2021/03/29 12:18:43;;;;;;;5.13;1.85;;;22.90;31.90;;;;;;5095002;28;20012;-78
2021/03/29 12:21:20;;;;;;;4.93;1.73;;;23.00;30.90;;;;;;5094800;28;20024;-77
2021/03/29 12:23:51;;;;;;;5.13;2.05;;;23.00;31.00;;;;;;5076806;28;20111;-78
2021/03/29 12:26:22;;;;;;;3.50;1.50;;;23.00;31.00;;;;;;5094673;28;20028;-78
2021/03/29 12:28:50;;;;;;;5.05;1.90;;;23.10;31.50;;;;;;5076619;28;20031;-78
2021/03/29 12:31:20;;;;;;;5.95;1.55;;;23.20;31.40;;;;;;5094267;28;20092;-78
2021/03/29 12:33:51;;;;;;;4.45;1.70;;;23.30;31.60;;;;;;5094405;28;20032;-78
2021/03/29 12:36:20;;;;;;;5.43;1.77;;;23.30;31.50;;;;;;5094641;28;20024;-78
2021/03/29 12:38:57;;;;;;;5.28;1.80;;;23.50;31.80;;;;;;5094450;28;20035;-78
2021/03/29 12:41:24;;;;;;;3.53;1.40;;;23.60;31.60;;;;;;5077092;28;20035;-78
2021/03/29 12:43:58;;;;;;;3.00;1.27;;;23.70;31.50;;;;;;5075820;28;20051;-78
2021/03/29 12:46:24;;;;;;;3.67;1.23;;;23.70;31.00;;;;;;5075567;28;20579;-78
2021/03/29 12:48:51;;;;;;;6.95;1.50;;;23.70;30.00;;;;;;5094179;28;20020;-79
2021/03/29 12:51:22;;;;;;;3.78;1.33;;;23.70;29.10;;;;;;5059371;28;20479;-79
2021/03/29 12:53:50;;;;;;;3.63;1.73;;;23.60;28.90;;;;;;5075278;28;20081;-79
2021/03/29 12:56:27;;;;;;;4.80;1.42;;;23.60;29.60;;;;;;5094211;28;20087;-79
2021/03/29 12:58:58;;;;;;;3.60;1.30;;;23.60;29.30;;;;;;5075709;28;20051;-79
2021/03/29 13:01:25;;;;;;;5.30;1.73;;;23.70;28.20;;;;;;5093207;28;20024;-79
2021/03/29 13:03:56;;;;;;;8.20;1.30;;;23.70;29.00;;;;;;5075137;28;20028;-79
2021/03/29 13:06:32;;;;;;;6.13;1.60;;;23.80;29.00;;;;;;5089710;28;20024;-80
2021/03/29 13:09:09;;;;;;;6.80;1.60;;;23.90;28.80;;;;;;5094065;28;20028;-80
2021/03/29 13:11:36;;;;;;;6.00;1.63;;;24.00;28.50;;;;;;5093928;28;20028;-80
2021/03/29 13:14:05;;;;;;;6.50;1.20;;;24.00;28.90;;;;;;5093826;28;20423;-80
2021/03/29 13:16:33;;;;;;;4.93;2.05;;;24.10;28.20;;;;;;5075748;28;20031;-80
2021/03/29 13:18:59;;;;;;;6.30;2.33;;;24.10;27.60;;;;;;5103357;28;20063;-80
2021/03/29 13:21:28;;;;;;;4.88;1.83;;;24.00;27.60;;;;;;5093523;28;20067;-80
2021/03/29 13:23:56;;;;;;;3.53;1.50;;;24.00;28.10;;;;;;5093637;28;20047;-80
2021/03/29 13:26:25;;;;;;;4.63;1.38;;;24.10;28.40;;;;;;5093751;28;20028;-80
2021/03/29 13:28:53;;;;;;;4.15;1.50;;;24.20;28.00;;;;;;5074711;28;20401;-80
2021/03/29 13:31:22;;;;;;;5.70;1.40;;;24.20;27.50;;;;;;5093509;28;20397;-80
2021/03/29 13:33:48;;;;;;;5.72;1.23;;;24.30;27.70;;;;;;5093850;28;20032;-80